Time;durP1;ratioP1;P1;durP2;ratioP2;P2;SDS_P1;SDS_P2;PMS_P1;PMS_P2;Temp;Humidity;BMP_temperature;BMP_pressure;BME280_temperature;BME280_humidity;BME280_pressure;Samples;Min_cycle;Max_cycle;Signal;HPM_P1;HPM_P2
2021/07/13 00:01:01;;;;;;;17.30;10.97;;;;;;;18.15;100.00;100487.34;5096353;28;20223;-71
2021/07/13 00:03:26;;;;;;;14.47;10.40;;;;;;;18.10;100.00;100475.13;5096937;28;20277;-71
2021/07/13 00:05:52;;;;;;;17.57;10.87;;;;;;;18.07;100.00;100471.84;5079533;28;20535;-70
2021/07/13 00:08:17;;;;;;;17.23;9.83;;;;;;;18.00;100.00;100474.25;5096280;28;20201;-71
2021/07/13 00:10:44;;;;;;;16.60;9.57;;;;;;;17.96;100.00;100478.22;5097540;28;20247;-71
2021/07/13 00:13:09;;;;;;;18.83;10.77;;;;;;;18.01;100.00;100478.66;5079601;28;20170;-71
2021/07/13 00:15:37;;;;;;;17.53;11.20;;;;;;;18.05;100.00;100476.53;5096356;28;20177;-71
2021/07/13 00:18:03;;;;;;;17.10;10.90;;;;;;;18.04;100.00;100475.69;5097053;28;20178;-71
2021/07/13 00:20:28;;;;;;;15.07;9.67;;;;;;;18.01;100.00;100478.66;5113387;28;20181;-71
2021/07/13 00:22:54;;;;;;;17.07;11.50;;;;;;;18.02;100.00;100483.06;5095669;28;20171;-70
2021/07/13 00:25:20;;;;;;;21.43;12.03;;;;;;;17.98;100.00;100478.94;5095962;28;20706;-71
2021/07/13 00:27:46;;;;;;;17.97;11.47;;;;;;;17.98;100.00;100480.78;5096362;28;20174;-71
2021/07/13 00:30:14;;;;;;;20.50;10.63;;;;;;;17.93;100.00;100478.50;5097444;28;20194;-71
2021/07/13 00:32:40;;;;;;;16.40;10.33;;;;;;;17.89;100.00;100478.91;5096450;28;20214;-72
2021/07/13 00:35:06;;;;;;;15.00;10.30;;;;;;;17.84;100.00;100479.31;5095864;28;20674;-71
2021/07/13 00:37:31;;;;;;;14.17;10.70;;;;;;;17.78;100.00;100477.13;5096201;28;20175;-71
2021/07/13 00:39:57;;;;;;;19.07;12.10;;;;;;;17.75;100.00;100474.72;5095745;28;20221;-71
2021/07/13 00:42:22;;;;;;;20.17;11.23;;;;;;;17.73;100.00;100474.84;5096791;28;20174;-71
2021/07/13 00:44:47;;;;;;;17.33;11.03;;;;;;;17.73;100.00;100469.44;5078470;28;20227;-71
2021/07/13 00:47:13;;;;;;;16.20;10.93;;;;;;;17.72;100.00;100472.28;5078438;28;20185;-71
2021/07/13 00:49:39;;;;;;;17.60;11.33;;;;;;;17.73;100.00;100468.59;5095510;28;20631;-71
2021/07/13 00:52:05;;;;;;;15.13;11.77;;;;;;;17.79;100.00;100465.34;5095226;28;20179;-71
2021/07/13 00:54:31;;;;;;;15.77;11.10;;;;;;;17.75;100.00;100464.78;5096100;28;20171;-71
2021/07/13 00:56:56;;;;;;;23.97;12.77;;;;;;;17.80;100.00;100459.81;5111969;28;20231;-69
2021/07/13 00:59:22;;;;;;;16.53;12.10;;;;;;;17.87;100.00;100464.69;5095117;28;20201;-71
2021/07/13 01:01:48;;;;;;;17.23;12.23;;;;;;;17.83;100.00;100465.94;5095476;28;20179;-71
2021/07/13 01:04:13;;;;;;;16.97;11.87;;;;;;;17.77;100.00;100460.09;5096082;28;20225;-71
2021/07/13 01:06:59;;;;;;;20.40;12.83;;;;;;;17.75;100.00;100459.38;5095173;28;20178;-71
2021/07/13 01:10:06;;;;;;;27.40;13.33;;;;;;;17.71;100.00;100459.78;5094790;28;20186;-71
2021/07/13 01:12:47;;;;;;;15.23;10.60;;;;;;;17.63;100.00;100462.28;5094403;28;20182;-71
2021/07/13 01:15:15;;;;;;;19.80;11.50;;;;;;;17.59;100.00;100456.31;5094664;28;20166;-70
2021/07/13 01:17:50;;;;;;;16.60;10.87;;;;;;;17.54;100.00;100453.16;5094566;28;20642;-71
2021/07/13 01:20:42;;;;;;;19.03;11.60;;;;;;;17.53;100.00;100451.44;5094840;28;20218;-71
2021/07/13 01:23:46;;;;;;;17.90;11.90;;;;;;;17.47;100.00;100452.00;5094661;28;20553;-71
2021/07/13 01:26:42;;;;;;;15.83;11.60;;;;;;;17.43;100.00;100454.06;5067157;28;20178;-71
2021/07/13 01:29:15;;;;;;;18.80;12.77;;;;;;;17.48;100.00;100448.31;5094245;28;20235;-71
2021/07/13 01:31:43;;;;;;;17.17;11.00;;;;;;;17.49;100.00;100444.63;5095631;28;20235;-71
2021/07/13 01:34:15;;;;;;;17.53;11.70;;;;;;;17.45;100.00;100438.59;5095478;28;20178;-70
2021/07/13 01:36:44;;;;;;;15.50;10.87;;;;;;;17.39;100.00;100439.16;5077819;28;20166;-71
2021/07/13 01:39:10;;;;;;;12.53;10.97;;;;;;;17.34;100.00;100445.94;5094990;28;20194;-71
2021/07/13 01:41:36;;;;;;;20.67;13.27;;;;;;;17.29;100.00;100453.59;5094190;28;20228;-71
2021/07/13 01:44:02;;;;;;;21.30;13.40;;;;;;;17.26;100.00;100443.06;5095853;28;20281;-71
2021/07/13 01:46:28;;;;;;;21.20;13.80;;;;;;;17.23;100.00;100454.97;5094136;28;20167;-70
2021/07/13 01:48:55;;;;;;;26.47;15.63;;;;;;;17.27;100.00;100463.66;5094584;28;20210;-71
2021/07/13 01:51:21;;;;;;;23.13;14.57;;;;;;;17.24;100.00;100455.81;5094357;28;20243;-70
2021/07/13 01:53:48;;;;;;;20.07;14.13;;;;;;;17.17;100.00;100464.44;5076778;28;20569;-70
2021/07/13 01:56:14;;;;;;;21.73;14.47;;;;;;;17.13;100.00;100463.00;5093680;28;20170;-69
2021/07/13 01:58:41;;;;;;;18.87;13.50;;;;;;;17.08;100.00;100462.53;5094927;28;20562;-70
2021/07/13 02:01:19;;;;;;;17.43;12.43;;;;;;;17.08;100.00;100462.53;5093649;28;20578;-71
2021/07/13 02:03:45;;;;;;;16.23;12.83;;;;;;;17.10;100.00;100455.19;5093646;28;20207;-70
2021/07/13 02:06:12;;;;;;;21.07;12.57;;;;;;;17.12;100.00;100455.06;5077034;28;20534;-70
2021/07/13 02:08:38;;;;;;;24.23;12.90;;;;;;;17.16;100.00;100451.09;5110747;28;20217;-70
2021/07/13 02:11:05;;;;;;;38.87;16.77;;;;;;;17.25;100.00;100452.13;5076219;28;20201;-71
2021/07/13 02:13:31;;;;;;;32.43;17.30;;;;;;;17.29;100.00;100450.88;5094591;28;20658;-70
2021/07/13 02:15:59;;;;;;;69.60;17.67;;;;;;;17.22;100.00;100449.72;5093413;28;20174;-71
2021/07/13 02:18:25;;;;;;;144.60;18.33;;;;;;;17.21;100.00;100454.25;5093526;28;20190;-71
2021/07/13 02:20:50;;;;;;;35.00;14.27;;;;;;;17.09;100.00;100448.06;5094420;28;20174;-72
2021/07/13 02:23:15;;;;;;;25.77;14.17;;;;;;;17.04;100.00;100449.44;5096800;28;20239;-72
2021/07/13 02:25:42;;;;;;;21.37;11.53;;;;;;;17.10;100.00;100457.03;5096577;28;20174;-72
2021/07/13 02:28:16;;;;;;;70.50;13.07;;;;;;;17.02;100.00;100454.97;5095817;28;20189;-71
2021/07/13 02:30:44;;;;;;;113.33;13.13;;;;;;;16.85;100.00;100451.03;5076763;28;20181;-71
2021/07/13 02:33:13;;;;;;;119.87;15.50;;;;;;;16.78;100.00;100438.22;5094053;28;20177;-71
2021/07/13 02:35:42;;;;;;;139.30;15.83;;;;;;;16.71;100.00;100437.84;5078117;28;20182;-70
2021/07/13 02:38:08;;;;;;;97.97;15.33;;;;;;;16.63;100.00;100436.75;5075819;28;20174;-72
2021/07/13 02:40:34;;;;;;;73.60;12.63;;;;;;;16.75;100.00;100435.78;5075654;28;20170;-71
2021/07/13 02:43:01;;;;;;;102.57;12.50;;;;;;;16.78;100.00;100433.69;5093920;28;20652;-71
2021/07/13 02:45:27;;;;;;;53.67;11.23;;;;;;;16.75;100.00;100438.47;5075702;28;20171;-71
2021/07/13 02:47:54;;;;;;;26.90;9.57;;;;;;;16.78;100.00;100449.00;5109689;28;20163;-71
2021/07/13 02:50:20;;;;;;;20.03;9.73;;;;;;;16.76;100.00;100446.44;5092642;28;20574;-71
2021/07/13 02:52:46;;;;;;;11.97;8.70;;;;;;;16.74;100.00;100444.84;5093998;28;20170;-71
2021/07/13 02:55:16;;;;;;;8.80;8.10;;;;;;;16.77;100.00;100447.28;5095239;28;20159;-72
2021/07/13 02:57:44;;;;;;;35.87;9.30;;;;;;;16.73;100.00;100440.44;5092881;28;20278;-71
2021/07/13 03:00:11;;;;;;;20.53;8.03;;;;;;;16.72;100.00;100444.09;5092675;28;20194;-70
2021/07/13 03:02:39;;;;;;;9.40;7.50;;;;;;;16.60;100.00;100443.25;5075613;28;20515;-70
2021/07/13 03:05:05;;;;;;;12.67;8.57;;;;;;;16.63;100.00;100442.16;5092303;28;20247;-71
2021/07/13 03:07:32;;;;;;;27.63;9.10;;;;;;;16.71;100.00;100442.38;5092338;28;20549;-70
2021/07/13 03:09:57;;;;;;;15.03;8.53;;;;;;;16.78;100.00;100447.16;5092251;28;20197;-70
2021/07/13 03:12:23;;;;;;;21.53;9.07;;;;;;;16.73;100.00;100446.69;5092296;28;20653;-70
2021/07/13 03:14:49;;;;;;;10.87;8.80;;;;;;;16.63;100.00;100437.63;5093449;28;20174;-70
2021/07/13 03:17:16;;;;;;;9.20;8.50;;;;;;;16.61;100.00;100444.13;5093323;28;20177;-71
2021/07/13 03:19:43;;;;;;;22.87;10.43;;;;;;;16.58;100.00;100440.69;5092354;28;20182;-70
2021/07/13 03:22:16;;;;;;;9.53;8.73;;;;;;;16.57;100.00;100444.38;5093298;28;20665;-71
2021/07/13 03:24:42;;;;;;;39.77;8.73;;;;;;;16.54;100.00;100441.09;5092284;28;20665;-72
2021/07/13 03:27:08;;;;;;;20.47;8.33;;;;;;;16.55;100.00;100438.25;5092312;28;20174;-70
2021/07/13 03:29:36;;;;;;;10.27;8.63;;;;;;;16.65;100.00;100441.03;5091854;28;20193;-71
2021/07/13 03:32:01;;;;;;;66.93;10.23;;;;;;;16.58;100.00;100432.63;5075201;28;20197;-72
2021/07/13 03:34:27;;;;;;;47.90;9.07;;;;;;;16.46;100.00;100433.66;5092372;28;20192;-71
2021/07/13 03:36:53;;;;;;;85.60;11.37;;;;;;;16.61;100.00;100430.66;5092044;28;20653;-71
2021/07/13 03:39:18;;;;;;;296.33;16.43;;;;;;;16.60;100.00;100426.25;5091842;28;20194;-71
2021/07/13 03:41:45;;;;;;;128.10;11.10;;;;;;;16.53;100.00;100434.84;5093259;28;20163;-71
2021/07/13 03:44:10;;;;;;;56.97;11.17;;;;;;;16.57;100.00;100430.91;5092397;28;20214;-71
2021/07/13 03:46:36;;;;;;;82.63;14.23;;;;;;;16.52;100.00;100429.59;5091973;28;20170;-71
2021/07/13 03:49:04;;;;;;;27.83;10.27;;;;;;;16.54;100.00;100436.56;5092049;22;20218;-74
2021/07/13 03:51:43;;;;;;;28.97;11.23;;;;;;;16.57;100.00;100419.28;5054895;28;20175;-73
2021/07/13 03:54:11;;;;;;;11.87;10.67;;;;;;;16.72;100.00;100422.53;5071911;28;20183;-73
2021/07/13 03:56:37;;;;;;;10.53;9.43;;;;;;;16.81;100.00;100422.63;5071827;28;20189;-74
2021/07/13 03:59:03;;;;;;;10.90;9.90;;;;;;;16.93;100.00;100434.19;5071966;28;20206;-75
2021/07/13 04:01:28;;;;;;;11.57;10.47;;;;;;;17.05;100.00;100433.13;5055344;28;20175;-75
2021/07/13 04:03:54;;;;;;;11.13;10.03;;;;;;;17.13;100.00;100427.09;5055126;28;20195;-75
2021/07/13 04:06:19;;;;;;;10.73;9.03;;;;;;;17.22;100.00;100439.78;5054897;28;20589;-75
2021/07/13 04:08:44;;;;;;;11.27;8.50;;;;;;;17.27;100.00;100431.28;5071541;28;20195;-74
2021/07/13 04:11:10;;;;;;;8.37;7.67;;;;;;;17.37;100.00;100424.09;5071664;28;20175;-74
2021/07/13 04:13:35;;;;;;;8.20;7.40;;;;;;;17.45;100.00;100430.50;5073490;28;20167;-75
2021/07/13 04:16:00;;;;;;;10.23;7.97;;;;;;;17.57;100.00;100428.59;5072380;28;20185;-75
2021/07/13 04:18:25;;;;;;;9.00;8.13;;;;;;;17.64;100.00;100442.41;5081849;28;20179;-75
2021/07/13 04:20:51;;;;;;;8.93;7.83;;;;;;;17.73;100.00;100431.66;5084742;28;20220;-76
2021/07/13 04:23:17;;;;;;;9.40;7.97;;;;;;;17.79;100.00;100435.66;5067323;28;20174;-76
2021/07/13 04:25:43;;;;;;;8.57;7.67;;;;;;;17.81;100.00;100439.06;5085393;28;20167;-74
2021/07/13 04:28:08;;;;;;;7.53;6.50;;;;;;;17.80;100.00;100437.38;5057000;28;20171;-75
2021/07/13 04:30:33;;;;;;;9.10;7.33;;;;;;;17.94;100.00;100433.44;5055470;28;20197;-74
2021/07/13 04:32:59;;;;;;;6.60;6.00;;;;;;;18.06;100.00;100444.00;5072059;28;20248;-74
2021/07/13 04:35:24;;;;;;;8.90;6.77;;;;;;;18.08;100.00;100441.16;5071987;28;20718;-76
2021/07/13 04:37:49;;;;;;;7.17;6.27;;;;;;;18.17;100.00;100429.50;5072050;28;20183;-75
2021/07/13 04:40:15;;;;;;;11.37;6.83;;;;;;;18.21;100.00;100439.06;5071793;28;20186;-76
2021/07/13 04:42:41;;;;;;;6.97;6.27;;;;;;;18.30;100.00;100432.81;5075507;28;20178;-75
2021/07/13 04:45:07;;;;;;;16.80;11.50;;;;;;;18.34;100.00;100434.25;5075286;28;20547;-75
2021/07/13 04:47:32;;;;;;;10.43;9.27;;;;;;;18.34;100.00;100436.09;5076690;28;20246;-75
2021/07/13 04:49:57;;;;;;;12.50;10.40;;;;;;;18.21;100.00;100439.06;5075184;28;20206;-76
2021/07/13 04:52:23;;;;;;;17.47;11.33;;;;;;;18.22;100.00;100438.06;5060377;28;20202;-75
2021/07/13 04:54:48;;;;;;;21.57;11.33;;;;;;;18.12;100.00;100439.88;5076234;28;20175;-75
2021/07/13 04:57:13;;;;;;;14.90;11.07;;;;;;;18.24;100.00;100440.63;5067695;28;20167;-75
2021/07/13 04:59:38;;;;;;;14.97;9.90;;;;;;;18.40;100.00;100447.19;5097769;28;20199;-75
2021/07/13 05:02:04;;;;;;;11.43;10.00;;;;;;;18.49;100.00;100442.78;5099049;28;20155;-73
2021/07/13 05:04:29;;;;;;;13.57;11.03;;;;;;;18.55;100.00;100438.66;5077829;28;20220;-74
2021/07/13 05:06:54;;;;;;;11.93;9.97;;;;;;;18.65;100.00;100432.31;5061074;28;20179;-74
2021/07/13 05:09:20;;;;;;;17.87;11.30;;;;;;;18.69;100.00;100436.41;5075065;28;20217;-74
2021/07/13 05:11:45;;;;;;;13.27;11.60;;;;;;;18.69;100.00;100435.56;5058306;28;20171;-78
2021/07/13 05:14:10;;;;;;;13.20;11.80;;;;;;;18.80;100.00;100427.31;5075467;28;20179;-75
2021/07/13 05:16:36;;;;;;;13.07;9.97;;;;;;;18.94;100.00;100429.56;5074208;28;20183;-75
2021/07/13 05:19:01;;;;;;;14.70;11.13;;;;;;;19.01;100.00;100428.00;5057933;28;20198;-75
2021/07/13 05:21:27;;;;;;;14.93;11.23;;;;;;;19.09;100.00;100434.53;5074036;28;20170;-71
2021/07/13 05:23:52;;;;;;;12.70;10.20;;;;;;;19.12;100.00;100437.78;5057041;28;20191;-75
2021/07/13 05:26:17;;;;;;;16.60;10.40;;;;;;;19.12;100.00;100437.78;5075225;28;20198;-71
2021/07/13 05:28:43;;;;;;;17.90;11.27;;;;;;;19.13;100.00;100452.16;5073798;28;20171;-73
2021/07/13 05:31:08;;;;;;;15.07;9.83;;;;;;;19.17;100.00;100446.31;5058473;28;20213;-72
2021/07/13 05:33:34;;;;;;;11.67;8.53;;;;;;;19.26;100.00;100448.16;5075096;28;20170;-72
2021/07/13 05:35:59;;;;;;;11.93;8.73;;;;;;;19.40;100.00;100446.00;5075876;28;20252;-72
2021/07/13 05:38:24;;;;;;;12.00;10.07;;;;;;;19.43;100.00;100446.56;5076237;28;20648;-73
2021/07/13 05:40:50;;;;;;;11.23;10.13;;;;;;;19.55;99.47;100448.09;5057447;28;20175;-72
2021/07/13 05:43:15;;;;;;;13.60;9.33;;;;;;;19.71;99.67;100449.34;5074343;28;20175;-72
2021/07/13 05:45:42;;;;;;;11.23;9.57;;;;;;;19.76;98.92;100447.03;5074175;28;20228;-72
2021/07/13 05:48:07;;;;;;;14.50;8.80;;;;;;;19.85;98.68;100456.97;5056967;28;20647;-67
2021/07/13 05:50:33;;;;;;;18.03;10.53;;;;;;;19.96;98.67;100454.03;5074359;28;20217;-68
2021/07/13 05:53:00;;;;;;;12.77;8.47;;;;;;;20.08;98.04;100452.84;5056394;28;20182;-66
2021/07/13 05:55:26;;;;;;;9.10;8.20;;;;;;;20.12;97.52;100451.53;5073482;28;20512;-66
2021/07/13 05:57:51;;;;;;;13.20;8.87;;;;;;;20.23;97.87;100455.91;5056608;28;20182;-67
2021/07/13 06:00:17;;;;;;;10.60;8.00;;;;;;;20.29;97.42;100452.56;5056813;28;20262;-70
2021/07/13 06:02:42;;;;;;;15.93;10.47;;;;;;;20.31;95.77;100455.97;5073258;28;20259;-69
2021/07/13 06:05:08;;;;;;;12.67;10.23;;;;;;;20.45;95.45;100455.50;5073207;28;20202;-68
2021/07/13 06:07:40;;;;;;;11.23;9.40;;;;;;;20.60;94.67;100456.66;5073277;28;20182;-68
2021/07/13 06:10:06;;;;;;;17.77;9.70;;;;;;;20.64;93.46;100459.06;5073598;28;20532;-69
2021/07/13 06:12:31;;;;;;;11.37;9.70;;;;;;;20.60;92.95;100458.53;5073345;28;20178;-68
2021/07/13 06:14:57;;;;;;;12.37;8.60;;;;;;;20.68;93.71;100461.31;5056542;28;20167;-68
2021/07/13 06:17:22;;;;;;;15.43;7.73;;;;;;;20.81;93.48;100455.47;5073369;28;20241;-68
2021/07/13 06:19:47;;;;;;;11.73;9.00;;;;;;;21.02;93.25;100458.72;5072969;28;20670;-68
2021/07/13 06:22:13;;;;;;;13.03;9.47;;;;;;;21.19;92.71;100459.72;5073097;28;20210;-72
2021/07/13 06:24:38;;;;;;;15.07;9.13;;;;;;;21.24;89.55;100462.84;5073237;28;20205;-76
2021/07/13 06:27:03;;;;;;;12.53;9.30;;;;;;;21.25;89.46;100464.53;5074747;28;20241;-75
2021/07/13 06:29:29;;;;;;;13.10;9.43;;;;;;;21.32;88.48;100464.75;5073015;28;20191;-75
2021/07/13 06:31:54;;;;;;;10.17;8.30;;;;;;;21.48;88.77;100462.13;5073325;28;20643;-75
2021/07/13 06:34:19;;;;;;;10.93;8.73;;;;;;;21.39;86.89;100466.66;5056556;28;20178;-76
2021/07/13 06:36:45;;;;;;;9.70;8.70;;;;;;;21.40;87.56;100476.50;5056948;28;20213;-75
2021/07/13 06:39:10;;;;;;;19.23;9.80;;;;;;;21.67;87.14;100470.06;5056824;28;20225;-75
2021/07/13 06:41:36;;;;;;;16.53;9.40;;;;;;;21.77;87.11;100469.94;5074288;28;20626;-75
2021/07/13 06:44:02;;;;;;;10.67;8.30;;;;;;;21.83;85.15;100475.56;5039816;28;20221;-75
2021/07/13 06:46:28;;;;;;;11.47;8.33;;;;;;;21.99;83.91;100468.53;5073234;28;20213;-75
2021/07/13 06:48:53;;;;;;;10.30;8.17;;;;;;;22.11;82.82;100462.66;5056090;28;20238;-76
2021/07/13 06:51:19;;;;;;;9.13;7.70;;;;;;;22.22;81.87;100457.91;5056181;28;20171;-76
2021/07/13 06:53:44;;;;;;;12.00;8.70;;;;;;;22.34;81.32;100457.47;5057261;28;20646;-74
2021/07/13 06:56:09;;;;;;;8.87;7.97;;;;;;;22.45;80.54;100456.28;5073706;28;20179;-74
2021/07/13 06:58:34;;;;;;;15.77;7.67;;;;;;;22.61;79.05;100448.16;5057280;28;20205;-73
2021/07/13 07:01:00;;;;;;;9.27;7.80;;;;;;;22.77;78.36;100453.63;5061190;28;20171;-73
2021/07/13 07:03:25;;;;;;;8.30;7.13;;;;;;;22.84;77.98;100448.38;5073744;28;20536;-76
2021/07/13 07:05:50;;;;;;;8.63;7.80;;;;;;;22.87;78.70;100452.63;5072611;28;20171;-74
2021/07/13 07:08:16;;;;;;;13.20;8.20;;;;;;;22.98;78.23;100438.69;5072947;28;20224;-75
2021/07/13 07:10:41;;;;;;;8.70;7.13;;;;;;;22.99;77.52;100438.50;5072461;28;20198;-74
2021/07/13 07:13:06;;;;;;;8.20;7.30;;;;;;;22.99;75.38;100433.06;5055727;28;20620;-75
2021/07/13 07:15:31;;;;;;;7.33;6.63;;;;;;;23.08;75.10;100429.34;5056036;28;20174;-76
2021/07/13 07:17:57;;;;;;;9.47;6.80;;;;;;;23.16;73.69;100430.34;5073235;28;20543;-75
2021/07/13 07:20:26;;;;;;;7.10;6.40;;;;;;;23.27;73.74;100430.84;5072985;28;20201;-74
2021/07/13 07:22:52;;;;;;;6.90;6.03;;;;;;;23.38;71.96;100426.88;5072320;28;20198;-74
2021/07/13 07:25:18;;;;;;;6.00;5.50;;;;;;;23.38;71.83;100433.19;5075773;28;20191;-76
2021/07/13 07:27:43;;;;;;;6.37;5.27;;;;;;;23.56;69.10;100426.72;5077623;28;20167;-75
2021/07/13 07:30:10;;;;;;;5.50;5.00;;;;;;;23.61;68.70;100429.75;5079714;28;20229;-75
2021/07/13 07:32:37;;;;;;;6.77;4.87;;;;;;;23.56;69.66;100432.16;5073805;28;20546;-75
2021/07/13 07:35:04;;;;;;;6.60;4.90;;;;;;;23.66;68.81;100424.63;5056762;28;20182;-76
2021/07/13 07:37:29;;;;;;;4.87;4.23;;;;;;;23.61;66.88;100422.44;5056435;28;20202;-74
2021/07/13 07:39:54;;;;;;;4.43;4.00;;;;;;;23.69;66.41;100421.56;5057174;28;20204;-76
2021/07/13 07:42:20;;;;;;;4.83;4.43;;;;;;;23.62;64.46;100418.69;5060841;28;20591;-75
2021/07/13 07:44:45;;;;;;;10.57;4.13;;;;;;;23.55;63.51;100420.44;5071913;28;20187;-75
2021/07/13 07:47:10;;;;;;;8.47;4.33;;;;;;;23.49;64.75;100425.69;5055244;28;20178;-75
2021/07/13 07:49:36;;;;;;;6.30;4.50;;;;;;;23.72;65.42;100426.66;5054887;28;20217;-75
2021/07/13 07:52:04;;;;;;;7.43;4.47;;;;;;;23.65;65.92;100425.66;5073349;28;20250;-76
2021/07/13 07:54:30;;;;;;;4.80;3.90;;;;;;;23.78;65.37;100425.09;5077353;28;20167;-76
2021/07/13 07:56:55;;;;;;;6.07;4.13;;;;;;;23.78;65.47;100420.50;5071975;28;20644;-75
2021/07/13 07:59:21;;;;;;;4.93;4.40;;;;;;;24.06;64.86;100418.16;5073203;28;20208;-75
2021/07/13 08:01:47;;;;;;;7.67;3.80;;;;;;;23.94;66.58;100423.16;5075002;28;20205;-76
2021/07/13 08:04:12;;;;;;;4.67;4.20;;;;;;;24.04;64.82;100414.75;5083992;28;20254;-76
2021/07/13 08:06:37;;;;;;;5.93;4.00;;;;;;;24.16;63.63;100418.81;5071964;28;20198;-75
2021/07/13 08:09:03;;;;;;;4.87;4.10;;;;;;;24.27;63.32;100421.16;5055500;28;20554;-75
2021/07/13 08:11:30;;;;;;;5.20;3.80;;;;;;;24.27;61.92;100412.09;5071794;28;20647;-76
2021/07/13 08:13:57;;;;;;;3.93;3.50;;;;;;;24.44;63.75;100418.31;5072013;28;20228;-76
2021/07/13 08:16:22;;;;;;;5.30;3.23;;;;;;;24.32;61.80;100412.44;5057354;28;20213;-77
2021/07/13 08:18:48;;;;;;;2.63;2.43;;;;;;;24.50;59.93;100415.69;5075817;28;20203;-76
2021/07/13 08:21:15;;;;;;;3.43;3.13;;;;;;;24.46;58.20;100419.81;5076005;28;20175;-76
2021/07/13 08:23:40;;;;;;;4.83;3.07;;;;;;;24.55;59.50;100415.19;5075774;28;20187;-75
2021/07/13 08:26:06;;;;;;;7.23;3.13;;;;;;;24.71;58.83;100411.47;5058623;28;20248;-75
2021/07/13 08:28:32;;;;;;;5.27;2.50;;;;;;;24.80;55.72;100413.94;5076083;28;20167;-76
2021/07/13 08:30:57;;;;;;;4.77;2.50;;;;;;;24.57;55.91;100418.59;5075876;28;20511;-75
2021/07/13 08:33:23;;;;;;;4.60;2.40;;;;;;;24.76;56.36;100409.88;5076851;28;20175;-75
2021/07/13 08:35:48;;;;;;;4.63;2.97;;;;;;;24.98;56.02;100410.94;5076760;28;20171;-74
2021/07/13 08:38:13;;;;;;;3.00;2.53;;;;;;;24.93;55.72;100410.63;5059017;28;20225;-75
2021/07/13 08:40:38;;;;;;;3.30;3.00;;;;;;;24.78;55.79;100404.25;5075020;28;20187;-76
2021/07/13 08:43:04;;;;;;;4.47;2.53;;;;;;;25.26;55.88;100400.22;5075137;28;20171;-76
2021/07/13 08:45:29;;;;;;;4.13;2.53;;;;;;;25.13;54.16;100400.88;5058058;28;20249;-76
2021/07/13 08:47:55;;;;;;;6.10;2.30;;;;;;;25.25;53.11;100402.13;5074873;28;20214;-76
2021/07/13 08:50:21;;;;;;;5.57;2.70;;;;;;;25.22;54.02;100396.19;5074924;28;20607;-76
2021/07/13 08:52:46;;;;;;;2.93;2.30;;;;;;;25.14;55.58;100405.31;5058440;28;20375;-76
2021/07/13 08:55:14;;;;;;;2.77;2.40;;;;;;;25.37;55.49;100404.41;5074781;28;20262;-76
2021/07/13 08:57:40;;;;;;;4.07;2.93;;;;;;;25.37;55.13;100404.41;5074986;28;20171;-78
2021/07/13 09:00:09;;;;;;;3.53;3.17;;;;;;;25.71;53.95;100404.72;5075962;28;20674;-75
2021/07/13 09:02:34;;;;;;;7.33;3.03;;;;;;;25.58;55.19;100400.91;5074828;28;20177;-76
2021/07/13 09:04:59;;;;;;;10.90;3.57;;;;;;;25.11;55.26;100408.41;5074771;28;20285;-75
2021/07/13 09:07:28;;;;;;;8.80;3.33;;;;;;;25.08;56.15;100406.06;5058063;28;20179;-77
2021/07/13 09:10:04;;;;;;;3.30;3.00;;;;;;;25.88;55.80;100405.34;5075667;28;20195;-74
2021/07/13 09:12:30;;;;;;;3.83;2.83;;;;;;;25.62;55.83;100408.53;5058790;28;20154;-76
2021/07/13 09:15:07;;;;;;;5.07;3.07;;;;;;;25.58;56.51;100409.97;5058111;28;20171;-76
2021/07/13 09:17:38;;;;;;;10.87;3.10;;;;;;;25.83;55.11;100403.19;5058090;28;20261;-77
2021/07/13 09:20:10;;;;;;;3.33;3.03;;;;;;;25.96;55.71;100404.41;5058484;28;20191;-77
2021/07/13 09:22:36;;;;;;;5.00;3.10;;;;;;;25.63;55.25;100399.31;5075209;28;20166;-77
2021/07/13 09:25:25;;;;;;;4.53;2.73;;;;;;;26.18;53.32;100395.22;5059988;28;20191;-77
2021/07/13 09:28:08;;;;;;;5.80;2.87;;;;;;;26.07;54.55;100393.00;5093876;28;20163;-76
2021/07/13 09:30:33;;;;;;;5.80;2.90;;;;;;;25.75;53.99;100395.09;5095751;28;20191;-76
2021/07/13 09:33:12;;;;;;;3.00;2.80;;;;;;;25.75;53.93;100388.78;5094243;28;20182;-76
2021/07/13 09:35:37;;;;;;;7.57;2.47;;;;;;;26.14;53.58;100394.75;5081461;28;20194;-76
2021/07/13 09:38:03;;;;;;;2.80;2.60;;;;;;;26.02;53.96;100396.31;5076268;28;20171;-77
2021/07/13 09:40:34;;;;;;;6.43;2.50;;;;;;;26.15;53.75;100390.13;5059359;28;20194;-77
2021/07/13 09:43:00;;;;;;;3.50;2.73;;;;;;;26.06;53.43;100385.81;5059507;28;20178;-77
2021/07/13 09:45:29;;;;;;;2.77;2.43;;;;;;;26.20;52.80;100382.19;5075210;28;20559;-76
2021/07/13 09:48:14;;;;;;;5.07;2.60;;;;;;;26.08;52.69;100386.47;5074853;28;20547;-76
2021/07/13 09:50:45;;;;;;;3.50;2.37;;;;;;;26.12;53.34;100383.16;5096535;22;20254;-70
2021/07/13 09:53:18;;;;;;;8.93;2.47;;;;;;;26.43;51.95;100380.16;5074064;28;20537;-71
2021/07/13 09:55:44;;;;;;;2.57;2.37;;;;;;;26.39;52.59;100381.59;5074687;28;20186;-71
2021/07/13 09:58:14;;;;;;;2.20;2.00;;;;;;;26.78;49.54;100374.81;5056828;28;20745;-71
2021/07/13 10:00:41;;;;;;;4.50;1.70;;;;;;;26.77;49.47;100373.97;5091659;28;20197;-71
2021/07/13 10:03:07;;;;;;;3.77;2.17;;;;;;;27.16;49.17;100374.50;5077395;28;20203;-71
2021/07/13 10:05:34;;;;;;;2.93;1.93;;;;;;;26.53;49.49;100365.31;5076673;28;20190;-71
2021/07/13 10:07:59;;;;;;;2.73;2.13;;;;;;;26.33;49.14;100374.16;5078095;28;20183;-71
2021/07/13 10:10:25;;;;;;;2.73;2.13;;;;;;;26.29;49.33;100361.88;5077101;28;20195;-70
2021/07/13 10:12:53;;;;;;;2.53;2.17;;;;;;;26.26;51.07;100359.53;5074247;28;20206;-70
2021/07/13 10:15:18;;;;;;;2.70;2.47;;;;;;;26.58;50.33;100368.31;5056576;28;20194;-71
2021/07/13 10:17:44;;;;;;;2.43;2.23;;;;;;;26.44;49.16;100373.66;5074670;28;20635;-70
2021/07/13 10:20:10;;;;;;;8.87;2.13;;;;;;;27.13;49.52;100370.25;5073076;28;20195;-71
2021/07/13 10:22:42;;;;;;;2.40;2.17;;;;;;;26.87;48.25;100362.66;5074286;28;20291;-71
2021/07/13 10:25:09;;;;;;;2.67;2.37;;;;;;;27.00;47.82;100365.53;5073471;28;20195;-71
2021/07/13 10:27:39;;;;;;;2.70;2.50;;;;;;;26.90;49.06;100365.00;5072965;28;20277;-71
2021/07/13 10:30:07;;;;;;;2.70;2.27;;;;;;;26.70;47.87;100366.72;5073291;28;20206;-71
2021/07/13 10:32:38;;;;;;;2.40;2.20;;;;;;;26.85;48.52;100364.75;5074153;28;20183;-70
2021/07/13 10:35:24;;;;;;;3.50;2.60;;;;;;;27.68;47.60;100371.28;5073166;28;20166;-66
2021/07/13 10:37:57;;;;;;;2.90;2.47;;;;;;;28.52;45.88;100368.19;5073086;28;20258;-67
2021/07/13 10:40:25;;;;;;;3.43;2.33;;;;;;;28.13;46.49;100358.78;5072186;28;20192;-64
2021/07/13 10:42:54;;;;;;;5.50;2.17;;;;;;;28.91;45.15;100362.75;5073604;28;20194;-64
2021/07/13 10:45:27;;;;;;;2.40;2.20;;;;;;;28.37;47.76;100359.31;5073581;28;20191;-65
2021/07/13 10:47:56;;;;;;;3.77;2.23;;;;;;;27.37;43.86;100358.00;5073618;28;20175;-66
2021/07/13 10:50:22;;;;;;;5.30;2.70;;;;;;;28.01;44.52;100357.69;5072179;28;20233;-67
2021/07/13 10:52:56;;;;;;;4.10;2.20;;;;;;;27.85;45.13;100356.16;5073697;28;20171;-68
2021/07/13 10:55:31;;;;;;;4.67;2.60;;;;;;;28.63;44.77;100357.44;5073870;28;20223;-66
2021/07/13 10:58:19;;;;;;;2.57;2.17;;;;;;;28.90;43.59;100361.06;5074068;28;20166;-65
2021/07/13 11:00:48;;;;;;;4.20;2.60;;;;;;;28.82;44.93;100353.00;5065397;28;20207;-66
2021/07/13 11:06:10;;;;;;;3.80;2.50;;;;;;;28.33;46.45;100358.88;5073654;28;20187;-67
2021/07/13 11:08:41;;;;;;;5.70;2.47;;;;;;;29.17;44.66;100366.53;5073600;28;20240;-67
2021/07/13 11:11:19;;;;;;;2.67;2.40;;;;;;;30.75;40.57;100354.84;5073208;28;20212;-66
2021/07/13 11:14:07;;;;;;;4.90;2.70;;;;;;;30.01;42.30;100358.25;5072571;28;20726;-67
2021/07/13 11:16:37;;;;;;;3.60;2.80;;;;;;;28.87;44.44;100355.97;5073032;28;20191;-67
2021/07/13 11:19:04;;;;;;;4.45;3.13;;;;;;;29.25;43.56;100358.06;5072431;28;20262;-69